Time;durP1;ratioP1;P1;durP2;ratioP2;P2;SDS_P1;SDS_P2;PMS_P1;PMS_P2;Temp;Humidity;BMP_temperature;BMP_pressure;BME280_temperature;BME280_humidity;BME280_pressure;Samples;Min_cycle;Max_cycle;Signal;HPM_P1;HPM_P2
2023/07/20 00:00:07;;;;;;;2.55;1.00;;;24.90;41.80;;;;;;2528314;54;21457;-65
2023/07/20 00:02:34;;;;;;;2.25;0.90;;;24.90;41.90;;;;;;2294224;55;21137;-67
2023/07/20 00:05:00;;;;;;;2.10;0.98;;;24.90;41.90;;;;;;2293193;56;20968;-64
2023/07/20 00:07:28;;;;;;;1.65;0.70;;;24.80;41.90;;;;;;2523051;54;21284;-64
2023/07/20 00:09:55;;;;;;;2.22;1.02;;;24.80;41.90;;;;;;2501533;54;21002;-65
2023/07/20 00:12:22;;;;;;;2.03;0.95;;;24.80;42.00;;;;;;2293389;55;21497;-67
2023/07/20 00:14:49;;;;;;;2.58;0.80;;;24.70;41.90;;;;;;2291792;55;20912;-64
2023/07/20 00:17:16;;;;;;;2.20;0.82;;;24.70;42.00;;;;;;2291994;55;20917;-65
2023/07/20 00:19:43;;;;;;;2.72;1.08;;;24.60;42.00;;;;;;2519569;54;20993;-67
2023/07/20 00:22:10;;;;;;;2.53;1.00;;;24.60;42.10;;;;;;2274075;55;20932;-64
2023/07/20 00:24:37;;;;;;;2.17;0.90;;;24.60;42.20;;;;;;2502095;54;21013;-65
2023/07/20 00:27:04;;;;;;;2.15;0.90;;;24.50;42.20;;;;;;2527528;54;20944;-67
2023/07/20 00:29:33;;;;;;;1.87;0.80;;;24.50;42.20;;;;;;2527166;54;21036;-64
2023/07/20 00:31:59;;;;;;;2.17;0.85;;;24.40;42.10;;;;;;2527932;54;20944;-65
2023/07/20 00:34:27;;;;;;;2.65;1.00;;;24.40;42.20;;;;;;2517477;54;21042;-65
2023/07/20 00:36:53;;;;;;;2.67;1.05;;;24.40;42.20;;;;;;2278030;55;20940;-67
2023/07/20 00:39:20;;;;;;;2.12;1.10;;;24.30;42.20;;;;;;2292406;55;20980;-66
2023/07/20 00:41:47;;;;;;;2.30;0.80;;;24.30;42.30;;;;;;2527917;54;20909;-64
2023/07/20 00:44:14;;;;;;;2.92;1.10;;;24.20;42.30;;;;;;2527759;54;21508;-65
2023/07/20 00:46:41;;;;;;;2.60;0.90;;;24.20;42.20;;;;;;2527627;54;21008;-65
2023/07/20 00:49:08;;;;;;;2.67;0.90;;;24.10;42.20;;;;;;2292623;55;20966;-65
2023/07/20 00:51:34;;;;;;;2.03;0.85;;;24.10;42.20;;;;;;2292069;55;20984;-65
2023/07/20 00:54:01;;;;;;;2.22;0.90;;;24.00;42.20;;;;;;2292617;55;20940;-64
2023/07/20 00:56:27;;;;;;;2.60;0.80;;;23.90;42.20;;;;;;2293096;55;20929;-64
2023/07/20 00:58:54;;;;;;;2.25;0.80;;;23.90;42.30;;;;;;2527425;54;21365;-65
2023/07/20 01:01:20;;;;;;;2.30;1.00;;;23.80;42.20;;;;;;2520933;54;21668;-65
2023/07/20 01:03:47;;;;;;;2.08;0.82;;;23.80;42.30;;;;;;2277239;55;21472;-66
2023/07/20 01:06:46;;;;;;;2.65;0.90;;;23.70;42.30;;;;;;2292889;55;20893;-64
2023/07/20 01:09:36;;;;;;;1.95;0.90;;;23.70;42.50;;;;;;2528438;54;20969;-65
2023/07/20 01:12:08;;;;;;;2.37;0.90;;;23.60;42.50;;;;;;2291847;55;20936;-64
2023/07/20 01:14:34;;;;;;;1.77;0.70;;;23.50;42.40;;;;;;2293738;56;20918;-64
2023/07/20 01:17:02;;;;;;;2.08;0.80;;;23.50;42.50;;;;;;2528252;54;21024;-64
2023/07/20 01:19:29;;;;;;;2.10;0.90;;;23.40;42.50;;;;;;2292606;55;20939;-64
2023/07/20 01:22:02;;;;;;;2.17;0.77;;;23.40;42.60;;;;;;2527853;54;20916;-65
2023/07/20 01:28:03;;;;;;;2.17;0.88;;;23.30;42.80;;;;;;2293256;55;20975;-64
2023/07/20 01:32:00;;;;;;;2.37;0.80;;;23.30;43.00;;;;;;2528171;54;20965;-65
2023/07/20 01:34:26;;;;;;;1.42;0.60;;;23.10;42.90;;;;;;2292546;56;20925;-64
2023/07/20 01:36:54;;;;;;;2.03;0.85;;;23.10;42.80;;;;;;2293040;55;20957;-65
2023/07/20 01:39:21;;;;;;;2.37;0.90;;;23.00;42.80;;;;;;2293895;55;21006;-65
2023/07/20 01:41:47;;;;;;;1.95;0.90;;;23.00;43.00;;;;;;2292941;55;20940;-66
2023/07/20 01:44:14;;;;;;;2.12;0.90;;;23.00;43.10;;;;;;2279944;55;20918;-64
2023/07/20 01:46:40;;;;;;;2.28;0.88;;;22.90;43.20;;;;;;2520353;54;20996;-67
2023/07/20 01:49:06;;;;;;;1.90;0.77;;;22.90;43.30;;;;;;2293477;55;20948;-64
2023/07/20 01:51:33;;;;;;;2.25;0.90;;;22.80;43.40;;;;;;2526579;54;20928;-67
2023/07/20 01:54:00;;;;;;;1.87;0.85;;;22.70;43.40;;;;;;2272033;55;20997;-64
2023/07/20 01:56:30;;;;;;;3.03;0.90;;;22.80;43.60;;;;;;2527170;54;20952;-65
2023/07/20 01:58:56;;;;;;;2.97;0.77;;;22.70;43.60;;;;;;2292920;55;20929;-64
2023/07/20 02:01:22;;;;;;;3.37;1.20;;;22.70;43.70;;;;;;2291446;55;20972;-65
2023/07/20 02:03:49;;;;;;;2.70;1.00;;;22.70;43.80;;;;;;2528148;54;20960;-64
2023/07/20 02:06:16;;;;;;;1.95;0.82;;;22.60;43.80;;;;;;2527642;54;20996;-67
2023/07/20 02:08:43;;;;;;;2.03;0.85;;;22.60;43.90;;;;;;2293099;55;21014;-66
2023/07/20 02:11:09;;;;;;;2.10;0.93;;;22.60;44.00;;;;;;2292871;55;20940;-65
2023/07/20 02:13:39;;;;;;;2.28;0.95;;;22.50;43.90;;;;;;2528259;54;20977;-67
2023/07/20 02:16:05;;;;;;;2.33;0.98;;;22.50;44.10;;;;;;2293305;55;20936;-65
2023/07/20 02:18:35;;;;;;;2.65;1.00;;;22.50;44.10;;;;;;2293388;55;20941;-65
2023/07/20 02:21:02;;;;;;;2.30;0.98;;;22.50;44.30;;;;;;2527741;54;21370;-65
2023/07/20 02:23:31;;;;;;;2.12;0.90;;;22.50;44.30;;;;;;2291946;55;22101;-65
2023/07/20 02:25:58;;;;;;;1.98;0.90;;;22.50;44.40;;;;;;2521041;54;21030;-67
2023/07/20 02:28:24;;;;;;;2.65;0.90;;;22.40;44.40;;;;;;2275932;55;20908;-65
2023/07/20 02:30:51;;;;;;;2.00;1.00;;;22.40;44.60;;;;;;2292906;55;21449;-65
2023/07/20 02:33:17;;;;;;;3.22;1.05;;;22.40;44.70;;;;;;2528308;54;20929;-65
2023/07/20 02:35:44;;;;;;;2.08;0.80;;;22.40;44.90;;;;;;2292693;56;20936;-64
2023/07/20 02:38:10;;;;;;;2.15;0.85;;;22.40;45.00;;;;;;2293115;55;20901;-64
2023/07/20 02:40:36;;;;;;;1.70;0.70;;;22.30;45.00;;;;;;2274434;55;20937;-65
2023/07/20 02:43:03;;;;;;;2.90;0.95;;;22.30;45.10;;;;;;2528047;54;20996;-65
2023/07/20 02:45:29;;;;;;;3.03;1.02;;;22.30;45.20;;;;;;2527537;54;20917;-64
2023/07/20 02:47:55;;;;;;;2.50;1.02;;;22.30;45.30;;;;;;2293312;56;20908;-64
2023/07/20 02:50:22;;;;;;;2.35;1.08;;;22.30;45.30;;;;;;2528249;54;21523;-65
2023/07/20 02:52:50;;;;;;;2.70;1.00;;;22.30;45.30;;;;;;2527568;54;21027;-64
2023/07/20 02:55:16;;;;;;;2.28;1.00;;;22.20;45.30;;;;;;2282280;55;21000;-65
2023/07/20 02:57:43;;;;;;;2.40;1.00;;;22.20;45.30;;;;;;2518486;54;21387;-65
2023/07/20 03:00:11;;;;;;;2.37;0.90;;;22.20;45.30;;;;;;2292432;56;21002;-65
2023/07/20 03:02:37;;;;;;;2.22;0.98;;;22.20;45.40;;;;;;2528245;54;20892;-67
2023/07/20 03:05:07;;;;;;;2.08;0.90;;;22.20;45.40;;;;;;2292478;55;21052;-67
2023/07/20 03:07:34;;;;;;;2.65;0.95;;;22.20;45.50;;;;;;2527341;54;20925;-64
2023/07/20 03:10:02;;;;;;;2.40;1.00;;;22.20;45.50;;;;;;2528148;54;20960;-64
2023/07/20 03:12:30;;;;;;;2.85;1.10;;;22.10;45.60;;;;;;2527980;54;20909;-66
2023/07/20 03:14:57;;;;;;;2.30;0.80;;;22.10;45.80;;;;;;2292679;55;20989;-64
2023/07/20 03:17:32;;;;;;;2.25;0.93;;;22.10;45.90;;;;;;2292979;55;20940;-64
2023/07/20 03:19:59;;;;;;;2.15;0.95;;;22.10;46.00;;;;;;2292590;55;20909;-65
2023/07/20 03:22:26;;;;;;;2.10;0.80;;;22.10;45.90;;;;;;2292992;55;21548;-66
2023/07/20 03:24:52;;;;;;;2.58;0.90;;;22.00;45.90;;;;;;2292388;55;21034;-64
2023/07/20 03:27:19;;;;;;;2.12;0.82;;;22.00;46.00;;;;;;2274642;55;20906;-67
2023/07/20 03:29:45;;;;;;;2.00;0.70;;;22.00;45.90;;;;;;2292473;55;20975;-65
2023/07/20 03:32:11;;;;;;;2.37;0.95;;;22.00;45.90;;;;;;2292453;55;21130;-65
2023/07/20 03:34:38;;;;;;;1.95;0.77;;;22.00;45.90;;;;;;2292339;55;20959;-65
2023/07/20 03:37:05;;;;;;;1.52;0.68;;;22.00;46.00;;;;;;2501595;54;21034;-64
2023/07/20 03:39:31;;;;;;;2.42;0.90;;;21.80;45.90;;;;;;2292834;55;20889;-65
2023/07/20 03:41:59;;;;;;;2.42;0.75;;;22.00;46.20;;;;;;2528115;54;20993;-65
2023/07/20 03:44:25;;;;;;;2.72;0.90;;;22.00;46.30;;;;;;2274869;55;20998;-67
2023/07/20 03:46:51;;;;;;;2.42;1.27;;;21.90;46.30;;;;;;2292123;55;21769;-68
2023/07/20 03:49:21;;;;;;;2.33;0.80;;;21.90;46.30;;;;;;2292423;55;20909;-67
2023/07/20 03:51:47;;;;;;;2.58;1.05;;;21.90;46.30;;;;;;2527490;54;20996;-65
2023/07/20 03:54:18;;;;;;;2.10;0.85;;;21.90;46.40;;;;;;2527897;54;21087;-66
2023/07/20 03:56:47;;;;;;;1.70;0.80;;;21.90;46.60;;;;;;2500079;54;21174;-65
2023/07/20 03:59:24;;;;;;;2.65;0.98;;;21.90;46.70;;;;;;2528221;54;20976;-65
2023/07/20 04:01:56;;;;;;;2.73;1.00;;;21.90;46.70;;;;;;2263566;55;2740729;-65
2023/07/20 04:04:24;;;;;;;1.55;0.70;;;21.90;46.90;;;;;;2279862;55;21625;-69
2023/07/20 04:06:51;;;;;;;2.90;0.85;;;21.90;46.80;;;;;;2292299;55;21085;-67
2023/07/20 04:09:18;;;;;;;2.40;1.00;;;21.90;46.90;;;;;;2296756;55;21809;-65
2023/07/20 04:11:47;;;;;;;2.10;0.93;;;21.90;47.00;;;;;;2527649;54;20920;-64
2023/07/20 04:14:16;;;;;;;1.85;0.82;;;21.90;47.10;;;;;;2527830;54;20964;-65
2023/07/20 04:16:43;;;;;;;2.33;0.75;;;21.90;47.10;;;;;;2528450;54;20912;-65
2023/07/20 04:19:11;;;;;;;1.90;0.80;;;21.90;47.10;;;;;;2293281;55;21051;-67
2023/07/20 04:21:41;;;;;;;2.45;1.05;;;21.90;47.20;;;;;;2293269;55;20996;-65
2023/07/20 04:24:08;;;;;;;3.00;1.00;;;21.90;47.30;;;;;;2528576;54;20925;-66
2023/07/20 04:26:35;;;;;;;2.17;0.90;;;21.90;47.30;;;;;;2528286;54;20908;-64
2023/07/20 04:29:04;;;;;;;2.08;1.00;;;21.90;47.40;;;;;;2289174;55;21058;-65
2023/07/20 04:31:34;;;;;;;1.52;0.68;;;21.90;47.40;;;;;;2282923;55;20920;-66
2023/07/20 04:34:03;;;;;;;2.85;0.90;;;21.90;47.50;;;;;;2528137;54;20951;-65
2023/07/20 04:36:30;;;;;;;2.12;0.80;;;21.90;47.40;;;;;;2293313;55;20989;-64
2023/07/20 04:38:56;;;;;;;2.42;0.82;;;21.90;47.40;;;;;;2528187;54;21034;-64
2023/07/20 04:41:25;;;;;;;1.80;0.80;;;21.90;47.50;;;;;;2293049;55;20916;-64
2023/07/20 04:43:51;;;;;;;2.65;0.85;;;21.90;47.50;;;;;;2293875;55;20956;-65
2023/07/20 04:46:21;;;;;;;2.58;0.90;;;21.90;47.70;;;;;;2277785;55;20978;-65
2023/07/20 04:48:47;;;;;;;1.70;0.90;;;22.00;47.80;;;;;;2290795;55;21378;-65
2023/07/20 04:51:20;;;;;;;2.53;1.05;;;22.00;47.80;;;;;;2501098;54;21493;-65
2023/07/20 04:53:48;;;;;;;2.28;1.05;;;22.00;47.90;;;;;;2527530;54;20988;-65
2023/07/20 04:56:15;;;;;;;2.80;1.02;;;22.00;48.00;;;;;;2293491;55;21923;-68
2023/07/20 04:58:45;;;;;;;2.55;1.00;;;22.00;48.10;;;;;;2293451;55;21029;-67
2023/07/20 05:01:14;;;;;;;1.80;0.80;;;22.10;48.20;;;;;;2289484;55;20997;-67
2023/07/20 05:03:43;;;;;;;4.12;1.25;;;22.10;48.30;;;;;;2510960;54;21501;-65
2023/07/20 05:06:16;;;;;;;2.67;1.17;;;22.10;48.30;;;;;;2520841;54;21070;-66
2023/07/20 05:08:44;;;;;;;2.28;1.10;;;22.10;48.30;;;;;;2277999;55;21008;-67
2023/07/20 05:11:11;;;;;;;3.30;1.20;;;22.10;48.30;;;;;;2293221;55;20980;-64
2023/07/20 05:13:38;;;;;;;3.33;1.30;;;22.20;48.60;;;;;;2500961;54;20974;-68
2023/07/20 05:16:05;;;;;;;2.35;1.15;;;22.20;48.60;;;;;;2292391;55;20936;-67
2023/07/20 05:18:31;;;;;;;2.53;1.15;;;22.20;48.60;;;;;;2501719;54;20999;-69
2023/07/20 05:20:57;;;;;;;2.12;0.90;;;22.20;48.60;;;;;;2292860;55;21056;-65
2023/07/20 05:23:24;;;;;;;2.20;1.00;;;22.30;48.60;;;;;;2292698;55;20928;-65
2023/07/20 05:25:57;;;;;;;2.10;1.00;;;22.30;48.60;;;;;;2526630;54;20941;-64
2023/07/20 05:28:29;;;;;;;2.58;1.20;;;22.30;48.70;;;;;;2292811;55;21004;-65
2023/07/20 05:30:55;;;;;;;3.10;0.95;;;22.40;48.80;;;;;;2277238;55;20965;-65
2023/07/20 05:33:22;;;;;;;3.05;1.10;;;22.40;48.70;;;;;;2290390;55;20964;-64
2023/07/20 05:35:48;;;;;;;4.62;1.52;;;22.40;48.70;;;;;;2527987;54;20924;-67
2023/07/20 05:38:14;;;;;;;1.90;0.80;;;22.40;48.70;;;;;;2292709;55;20904;-66
2023/07/20 05:40:41;;;;;;;2.03;0.90;;;22.50;48.80;;;;;;2527909;54;21024;-65
2023/07/20 05:43:08;;;;;;;4.05;0.93;;;22.50;48.80;;;;;;2528090;54;20917;-64
2023/07/20 05:45:34;;;;;;;2.22;1.02;;;22.50;48.70;;;;;;2528252;54;20988;-65
2023/07/20 05:48:00;;;;;;;2.60;1.10;;;22.50;48.70;;;;;;2292666;55;20960;-65
2023/07/20 05:50:27;;;;;;;2.70;1.10;;;22.60;48.80;;;;;;2288064;55;21026;-65
2023/07/20 05:52:55;;;;;;;5.32;1.30;;;22.60;48.90;;;;;;2280445;55;20951;-67
2023/07/20 05:55:24;;;;;;;2.45;1.10;;;22.60;48.90;;;;;;2292201;55;21912;-65
2023/07/20 05:57:56;;;;;;;2.78;1.15;;;22.70;49.20;;;;;;2528370;54;20948;-65
2023/07/20 06:00:26;;;;;;;2.85;0.93;;;22.70;49.20;;;;;;2528018;54;20897;-64
2023/07/20 06:02:53;;;;;;;3.20;1.10;;;22.80;49.30;;;;;;2526321;54;20876;-65
2023/07/20 06:05:20;;;;;;;2.58;1.20;;;22.80;49.50;;;;;;2272679;55;21480;-64
2023/07/20 06:07:47;;;;;;;2.53;1.23;;;22.80;49.50;;;;;;2514662;54;21420;-65
2023/07/20 06:10:13;;;;;;;2.95;1.35;;;22.90;49.50;;;;;;2282677;55;20992;-68
2023/07/20 06:12:40;;;;;;;3.70;1.62;;;22.90;49.60;;;;;;2528240;54;20936;-65
2023/07/20 06:15:23;;;;;;;2.50;1.35;;;23.00;49.70;;;;;;2293632;55;20932;-65
2023/07/20 06:17:49;;;;;;;2.97;1.30;;;23.00;49.60;;;;;;2273307;55;20989;-65
2023/07/20 06:20:16;;;;;;;3.53;1.23;;;23.10;49.60;;;;;;2513261;54;21013;-66
2023/07/20 06:22:45;;;;;;;2.50;1.20;;;23.10;49.60;;;;;;2282268;55;20928;-64
2023/07/20 06:25:11;;;;;;;2.67;1.20;;;23.20;49.50;;;;;;2292482;55;20928;-64
2023/07/20 06:27:40;;;;;;;3.03;1.10;;;23.20;49.40;;;;;;2508957;54;21013;-64
2023/07/20 06:30:06;;;;;;;2.83;1.23;;;23.20;49.30;;;;;;2280081;55;21054;-65
2023/07/20 06:32:33;;;;;;;2.90;1.20;;;23.30;49.20;;;;;;2273078;55;20960;-67
2023/07/20 06:34:59;;;;;;;2.55;1.30;;;23.40;49.20;;;;;;2527981;54;20984;-66
2023/07/20 06:37:26;;;;;;;3.37;1.10;;;23.40;49.10;;;;;;2293651;56;20952;-65
2023/07/20 06:39:53;;;;;;;2.65;1.00;;;23.40;49.00;;;;;;2291684;55;20948;-65
2023/07/20 06:42:25;;;;;;;3.70;1.12;;;23.50;49.10;;;;;;2527605;54;20944;-65
2023/07/20 06:44:51;;;;;;;3.50;1.40;;;23.50;49.00;;;;;;2528069;54;21699;-66
2023/07/20 06:47:17;;;;;;;3.55;1.30;;;23.50;48.90;;;;;;2291967;55;21020;-68
2023/07/20 06:49:44;;;;;;;2.95;1.10;;;23.60;48.90;;;;;;2293077;55;20888;-65
2023/07/20 06:52:10;;;;;;;2.42;1.10;;;23.60;48.70;;;;;;2528525;54;20929;-65
2023/07/20 06:54:36;;;;;;;2.75;1.10;;;23.70;48.70;;;;;;2527883;54;20972;-66
2023/07/20 06:57:10;;;;;;;3.50;1.27;;;23.70;48.70;;;;;;2528243;54;20948;-66
2023/07/20 06:59:40;;;;;;;3.90;1.70;;;23.80;48.70;;;;;;2523991;54;21032;-65
2023/07/20 07:02:06;;;;;;;3.35;1.30;;;23.80;48.60;;;;;;2293218;55;21000;-67
2023/07/20 07:04:32;;;;;;;4.95;1.20;;;23.80;48.50;;;;;;2292450;55;21011;-65
2023/07/20 07:07:04;;;;;;;2.85;1.33;;;23.90;48.40;;;;;;2511579;54;20949;-65
2023/07/20 07:09:32;;;;;;;2.90;1.23;;;23.90;48.10;;;;;;2285204;55;20949;-65
2023/07/20 07:11:58;;;;;;;2.05;0.95;;;23.90;48.10;;;;;;2293162;55;20944;-65
2023/07/20 07:14:24;;;;;;;2.50;1.20;;;24.00;48.00;;;;;;2292759;55;20980;-67
2023/07/20 07:16:53;;;;;;;3.72;1.30;;;24.00;48.30;;;;;;2292926;56;20876;-65
2023/07/20 07:19:23;;;;;;;3.00;1.35;;;24.00;47.90;;;;;;2523213;54;20935;-65
2023/07/20 07:21:51;;;;;;;4.05;1.20;;;24.10;48.00;;;;;;2293106;55;20988;-65
2023/07/20 07:24:18;;;;;;;3.45;1.23;;;24.10;48.00;;;;;;2527457;54;21001;-65
2023/07/20 07:26:45;;;;;;;3.37;1.35;;;24.10;48.00;;;;;;2291998;55;20924;-65
2023/07/20 07:29:12;;;;;;;2.97;1.35;;;24.10;47.90;;;;;;2524536;54;20920;-64
2023/07/20 07:31:39;;;;;;;2.20;1.00;;;24.10;47.90;;;;;;2293221;55;20988;-66
2023/07/20 07:34:05;;;;;;;2.08;0.95;;;24.20;47.80;;;;;;2293385;56;21047;-66
2023/07/20 07:36:32;;;;;;;2.47;1.17;;;24.20;47.70;;;;;;2292449;56;21572;-65
2023/07/20 07:38:58;;;;;;;2.33;0.98;;;24.20;47.80;;;;;;2527914;54;20976;-67
2023/07/20 07:41:28;;;;;;;2.78;0.93;;;24.30;47.70;;;;;;2292409;56;20908;-65
2023/07/20 07:43:54;;;;;;;3.35;1.40;;;24.30;47.70;;;;;;2528192;54;21004;-65
2023/07/20 07:46:20;;;;;;;2.33;0.98;;;24.30;47.60;;;;;;2292437;55;20936;-65
2023/07/20 07:48:47;;;;;;;2.78;1.00;;;24.40;47.60;;;;;;2292881;56;20952;-67
2023/07/20 07:51:15;;;;;;;3.20;1.30;;;24.40;47.60;;;;;;2292845;55;20968;-65
2023/07/20 07:53:42;;;;;;;2.53;1.10;;;24.40;47.70;;;;;;2528390;54;20933;-65
2023/07/20 07:56:08;;;;;;;2.75;1.20;;;24.40;48.20;;;;;;2293086;55;20924;-65
2023/07/20 07:58:37;;;;;;;3.30;1.73;;;24.50;47.80;;;;;;2292427;55;20900;-65
2023/07/20 08:01:04;;;;;;;2.50;1.17;;;24.50;47.80;;;;;;2293546;55;20956;-66
2023/07/20 08:03:30;;;;;;;3.05;1.10;;;24.60;47.90;;;;;;2293131;55;20925;-66
2023/07/20 08:05:56;;;;;;;2.42;1.12;;;24.60;48.00;;;;;;2529001;54;21281;-66
2023/07/20 08:08:23;;;;;;;2.55;1.48;;;24.60;48.00;;;;;;2527436;54;20913;-65
2023/07/20 08:10:52;;;;;;;3.08;1.50;;;24.70;48.00;;;;;;2293732;55;20991;-65
2023/07/20 08:13:19;;;;;;;2.40;1.02;;;24.70;48.00;;;;;;2292451;55;20996;-67
2023/07/20 08:15:49;;;;;;;2.37;1.10;;;24.80;48.00;;;;;;2293068;55;20948;-65
2023/07/20 08:18:15;;;;;;;2.25;1.00;;;24.80;47.80;;;;;;2293179;55;21035;-65
2023/07/20 08:20:45;;;;;;;2.25;1.00;;;24.90;47.80;;;;;;2528792;54;21374;-66
2023/07/20 08:23:12;;;;;;;3.95;1.00;;;24.90;47.90;;;;;;2502423;54;20928;-68
2023/07/20 08:25:41;;;;;;;2.37;1.17;;;25.00;47.90;;;;;;2292366;55;20968;-66
2023/07/20 08:28:09;;;;;;;2.47;1.08;;;25.10;47.90;;;;;;2294054;55;21016;-67
2023/07/20 08:30:48;;;;;;;2.30;1.20;;;25.10;47.80;;;;;;2293057;55;21547;-65
2023/07/20 08:33:15;;;;;;;3.37;1.10;;;25.20;47.70;;;;;;2292695;55;20920;-66
2023/07/20 08:35:43;;;;;;;2.30;1.20;;;25.30;47.80;;;;;;2528882;54;20904;-69
2023/07/20 08:38:12;;;;;;;2.60;1.33;;;25.30;47.60;;;;;;2293201;55;20963;-65
2023/07/20 08:40:42;;;;;;;3.15;1.40;;;25.40;47.60;;;;;;2292797;56;20905;-66
2023/07/20 08:43:10;;;;;;;3.05;1.37;;;25.40;47.60;;;;;;2293281;55;20975;-66
2023/07/20 08:45:38;;;;;;;3.45;1.10;;;25.50;47.60;;;;;;2292443;55;20940;-65
2023/07/20 08:48:05;;;;;;;3.05;1.42;;;25.50;47.70;;;;;;2529020;54;20908;-65
2023/07/20 08:50:33;;;;;;;2.53;1.25;;;25.60;47.60;;;;;;2528650;54;21859;-66
2023/07/20 08:53:00;;;;;;;3.00;1.37;;;25.70;47.50;;;;;;2293121;56;20924;-65
2023/07/20 08:55:26;;;;;;;3.08;1.55;;;25.70;47.40;;;;;;2528046;54;20965;-65
2023/07/20 08:57:56;;;;;;;3.17;1.60;;;25.70;47.30;;;;;;2293384;55;20921;-65
2023/07/20 09:00:23;;;;;;;2.80;1.10;;;25.80;47.30;;;;;;2292783;55;21548;-65
2023/07/20 09:02:51;;;;;;;2.35;1.10;;;25.80;47.30;;;;;;2292957;55;21497;-66
2023/07/20 09:05:19;;;;;;;3.10;1.20;;;25.80;47.20;;;;;;2528377;54;21061;-65
2023/07/20 09:07:46;;;;;;;2.30;1.30;;;25.90;47.10;;;;;;2291570;55;21034;-65
2023/07/20 09:10:14;;;;;;;2.35;1.20;;;25.90;47.10;;;;;;2276976;55;20944;-65
2023/07/20 09:12:44;;;;;;;2.42;0.90;;;25.90;46.90;;;;;;2293132;55;20920;-66
2023/07/20 09:15:11;;;;;;;2.62;1.10;;;25.90;46.90;;;;;;2528858;54;20897;-68
2023/07/20 09:17:40;;;;;;;2.17;0.82;;;26.00;46.70;;;;;;2528285;54;20964;-67
2023/07/20 09:20:08;;;;;;;3.20;1.10;;;26.00;46.70;;;;;;2293340;55;20932;-68
2023/07/20 09:22:35;;;;;;;2.80;1.30;;;26.00;46.70;;;;;;2293125;55;20964;-65
2023/07/20 09:25:01;;;;;;;2.85;1.20;;;26.00;46.60;;;;;;2293023;55;21052;-66
2023/07/20 09:27:39;;;;;;;4.78;1.30;;;26.10;46.50;;;;;;2527767;54;21386;-66
2023/07/20 09:30:08;;;;;;;3.00;0.90;;;26.10;46.20;;;;;;2528338;54;21012;-65
2023/07/20 09:32:42;;;;;;;3.08;1.23;;;26.10;46.30;;;;;;2528515;54;21330;-66
2023/07/20 09:35:15;;;;;;;3.10;1.37;;;26.20;46.50;;;;;;2291718;55;21428;-65
2023/07/20 09:37:53;;;;;;;2.22;0.95;;;26.20;46.50;;;;;;2507567;54;20952;-66
2023/07/20 09:40:50;;;;;;;3.00;1.20;;;26.30;46.40;;;;;;2292750;55;20997;-65
2023/07/20 09:43:20;;;;;;;3.05;1.40;;;26.30;46.40;;;;;;2528361;54;20956;-66
2023/07/20 09:45:49;;;;;;;2.30;1.05;;;26.40;46.50;;;;;;2527976;54;20992;-66
2023/07/20 09:48:24;;;;;;;3.22;1.10;;;26.40;46.50;;;;;;2528393;54;20955;-65
2023/07/20 09:50:53;;;;;;;3.40;1.15;;;26.50;46.40;;;;;;2527443;54;20940;-67
2023/07/20 09:53:20;;;;;;;1.95;0.95;;;26.50;46.30;;;;;;2293029;55;20972;-66
2023/07/20 09:55:49;;;;;;;2.08;1.00;;;26.60;46.30;;;;;;2292456;56;21371;-68
2023/07/20 09:58:17;;;;;;;2.80;1.00;;;26.60;46.30;;;;;;2293211;55;20984;-66
2023/07/20 10:00:49;;;;;;;2.83;1.10;;;26.70;46.30;;;;;;2291953;56;20995;-67
2023/07/20 10:03:22;;;;;;;2.83;1.00;;;26.70;46.40;;;;;;2293225;55;20932;-65
2023/07/20 10:06:09;;;;;;;3.30;1.10;;;26.80;45.80;;;;;;2292874;55;20963;-66
2023/07/20 10:08:40;;;;;;;2.53;1.08;;;26.90;45.40;;;;;;2528413;54;20913;-66
2023/07/20 10:11:10;;;;;;;2.67;1.00;;;27.00;45.70;;;;;;2293655;55;21019;-68
2023/07/20 10:13:38;;;;;;;2.70;1.20;;;27.10;45.50;;;;;;2527862;54;21846;-66
2023/07/20 10:16:33;;;;;;;2.95;1.12;;;27.10;45.30;;;;;;2293544;55;20952;-65
2023/07/20 10:19:29;;;;;;;1.75;0.90;;;27.20;44.50;;;;;;2293040;55;20952;-66
2023/07/20 10:22:01;;;;;;;1.90;0.70;;;27.20;44.70;;;;;;2292834;55;20992;-66
2023/07/20 10:24:30;;;;;;;2.45;1.02;;;27.30;44.60;;;;;;2292091;55;20940;-66
2023/07/20 10:26:56;;;;;;;2.55;1.20;;;27.30;44.50;;;;;;2292230;55;20948;-66
2023/07/20 10:29:23;;;;;;;2.33;1.10;;;27.40;44.20;;;;;;2296221;55;20948;-65
2023/07/20 10:31:51;;;;;;;2.28;0.90;;;27.40;44.00;;;;;;2270953;55;21683;-67
2023/07/20 10:34:18;;;;;;;2.20;0.93;;;27.50;43.70;;;;;;2528575;54;21048;-65
2023/07/20 10:36:46;;;;;;;2.05;0.70;;;27.50;43.60;;;;;;2292431;56;20944;-67
2023/07/20 10:39:27;;;;;;;1.98;0.77;;;27.60;43.60;;;;;;2528317;54;21000;-68
2023/07/20 10:42:06;;;;;;;2.35;0.95;;;27.60;43.10;;;;;;2292430;55;20999;-66
2023/07/20 10:44:32;;;;;;;3.05;0.80;;;27.70;43.10;;;;;;2292936;56;21824;-67
2023/07/20 10:47:05;;;;;;;2.33;0.90;;;27.70;43.10;;;;;;2293131;55;20932;-67
2023/07/20 10:49:35;;;;;;;2.03;1.08;;;27.70;42.80;;;;;;2293101;55;21791;-65
2023/07/20 10:52:04;;;;;;;2.33;0.88;;;27.80;42.50;;;;;;2293672;55;20987;-65
2023/07/20 10:54:34;;;;;;;2.72;0.85;;;27.80;42.60;;;;;;2293076;55;20933;-66
2023/07/20 10:57:28;;;;;;;1.75;0.90;;;27.80;42.30;;;;;;2294584;55;21011;-65
2023/07/20 11:00:11;;;;;;;2.00;0.82;;;27.80;42.10;;;;;;2495689;55;21021;-66
2023/07/20 11:02:49;;;;;;;1.50;0.65;;;27.80;42.20;;;;;;2278741;55;21040;-66
2023/07/20 11:05:38;;;;;;;2.00;0.80;;;27.90;42.20;;;;;;2281017;55;21405;-65
2023/07/20 11:08:06;;;;;;;2.15;0.93;;;27.90;42.00;;;;;;2293142;55;21437;-67
2023/07/20 11:10:33;;;;;;;2.33;1.08;;;27.90;42.20;;;;;;2292731;55;21021;-67
2023/07/20 11:14:04;;;;;;;2.15;0.85;;;27.90;42.00;;;;;;2292925;55;21401;-67
2023/07/20 11:16:46;;;;;;;2.22;0.95;;;28.00;41.60;;;;;;2528195;54;21366;-65
2023/07/20 11:19:24;;;;;;;2.55;1.15;;;27.90;41.60;;;;;;2518298;54;20933;-66
2023/07/20 11:21:57;;;;;;;1.95;0.82;;;27.90;41.50;;;;;;2516193;54;20908;-66
2023/07/20 11:24:27;;;;;;;2.75;0.80;;;27.90;41.50;;;;;;2293006;55;20964;-67
2023/07/20 11:26:54;;;;;;;2.30;0.77;;;27.90;41.60;;;;;;2292652;55;20904;-65
2023/07/20 11:29:22;;;;;;;2.55;0.95;;;27.90;41.30;;;;;;2527958;54;21750;-66
2023/07/20 11:31:59;;;;;;;3.30;1.10;;;27.90;41.20;;;;;;2528108;54;20899;-66
2023/07/20 11:34:25;;;;;;;2.42;0.90;;;27.80;41.40;;;;;;2528783;54;20948;-66
2023/07/20 11:36:51;;;;;;;1.52;0.60;;;27.90;41.60;;;;;;2292934;55;20972;-66
2023/07/20 11:39:25;;;;;;;2.33;0.90;;;27.90;41.60;;;;;;2528827;54;21015;-69
2023/07/20 11:41:53;;;;;;;1.70;0.68;;;27.90;41.40;;;;;;2293138;55;20967;-65
2023/07/20 11:44:26;;;;;;;2.20;0.95;;;27.90;41.20;;;;;;2528495;54;20955;-67
2023/07/20 11:47:08;;;;;;;2.40;0.85;;;27.90;41.30;;;;;;2292747;55;20940;-65
2023/07/20 11:49:49;;;;;;;1.50;0.65;;;28.00;40.90;;;;;;2293214;55;21894;-66
2023/07/20 11:52:16;;;;;;;1.70;0.80;;;28.00;41.10;;;;;;2292743;55;21738;-68
2023/07/20 11:54:43;;;;;;;1.80;0.70;;;28.10;41.40;;;;;;2292469;55;21044;-66
2023/07/20 11:57:17;;;;;;;2.33;0.82;;;28.10;41.50;;;;;;2293272;55;20944;-68
2023/07/20 12:00:03;;;;;;;1.67;0.60;;;28.20;41.20;;;;;;2527561;54;21008;-66
2023/07/20 12:02:30;;;;;;;2.10;0.80;;;28.20;40.90;;;;;;2528461;54;20984;-65
2023/07/20 12:04:56;;;;;;;1.48;0.68;;;28.30;40.90;;;;;;2528253;54;21248;-66
2023/07/20 12:07:27;;;;;;;1.62;0.65;;;28.30;40.70;;;;;;2293062;55;21392;-68
2023/07/20 12:10:06;;;;;;;3.10;0.73;;;28.40;40.70;;;;;;2293011;56;21389;-65
2023/07/20 12:12:43;;;;;;;1.75;0.70;;;28.40;40.20;;;;;;2292362;55;21824;-65
2023/07/20 12:15:26;;;;;;;1.73;0.68;;;28.40;40.30;;;;;;2292100;55;20997;-66
2023/07/20 12:17:53;;;;;;;2.08;0.80;;;28.40;39.60;;;;;;2276578;55;21496;-64
2023/07/20 12:20:58;;;;;;;2.22;1.02;;;28.40;40.00;;;;;;2293113;55;21032;-66
2023/07/20 12:23:24;;;;;;;2.17;0.80;;;28.40;39.70;;;;;;2292864;55;20944;-67
2023/07/20 12:25:51;;;;;;;1.58;0.80;;;28.40;39.90;;;;;;2292510;55;20905;-65
2023/07/20 12:28:19;;;;;;;2.95;1.10;;;28.40;39.90;;;;;;2292255;55;20985;-64
2023/07/20 12:30:45;;;;;;;2.70;0.70;;;28.40;40.00;;;;;;2527062;54;21836;-65
2023/07/20 12:33:17;;;;;;;2.37;0.55;;;28.40;40.00;;;;;;2527950;54;20919;-65
2023/07/20 12:35:43;;;;;;;2.00;0.90;;;28.50;40.00;;;;;;2293175;55;20945;-65
2023/07/20 12:38:09;;;;;;;1.58;0.60;;;28.50;40.10;;;;;;2293326;55;20972;-66
2023/07/20 12:40:36;;;;;;;2.10;0.77;;;28.60;40.10;;;;;;2293328;55;20992;-66
2023/07/20 12:43:03;;;;;;;1.90;0.70;;;28.60;40.10;;;;;;2507239;54;20969;-64
2023/07/20 12:45:30;;;;;;;1.87;0.73;;;28.60;39.90;;;;;;2288187;55;21395;-65
2023/07/20 12:47:56;;;;;;;1.92;0.65;;;28.70;39.60;;;;;;2290085;55;21022;-66
2023/07/20 12:50:22;;;;;;;1.17;0.55;;;28.70;39.50;;;;;;2276421;55;20968;-65
2023/07/20 12:52:50;;;;;;;1.67;0.70;;;28.80;39.30;;;;;;2292740;55;21000;-66
2023/07/20 12:55:17;;;;;;;1.83;0.88;;;28.80;39.30;;;;;;2293392;55;20897;-65
2023/07/20 12:57:43;;;;;;;1.35;0.60;;;28.80;39.40;;;;;;2292605;55;21845;-65
2023/07/20 13:00:11;;;;;;;1.92;0.90;;;28.80;39.20;;;;;;2527763;54;20936;-65
2023/07/20 13:02:38;;;;;;;2.15;0.80;;;28.90;39.40;;;;;;2292823;55;20932;-66